Time;durP1;ratioP1;P1;durP2;ratioP2;P2;SDS_P1;SDS_P2;PMS_P1;PMS_P2;Temp;Humidity;BMP_temperature;BMP_pressure;BME280_temperature;BME280_humidity;BME280_pressure;Samples;Min_cycle;Max_cycle;Signal;HPM_P1;HPM_P2
2023/10/02 00:00:39;;;;;;;14.23;4.45;;;13.40;78.00;;;;;;4882934;29;20073;-91
2023/10/02 00:03:09;;;;;;;13.13;4.70;;;13.40;78.10;;;;;;4892036;29;20554;-90
2023/10/02 00:05:40;;;;;;;13.75;4.20;;;13.40;78.10;;;;;;4883730;29;20048;-90
2023/10/02 00:08:25;;;;;;;10.75;4.10;;;13.50;78.10;;;;;;4884743;29;20651;-90
2023/10/02 00:10:52;;;;;;;11.23;4.45;;;13.50;78.00;;;;;;4889524;29;20044;-90
2023/10/02 00:13:21;;;;;;;11.45;3.83;;;13.50;77.90;;;;;;4889592;29;20053;-90
2023/10/02 00:15:50;;;;;;;11.20;4.40;;;13.50;77.90;;;;;;4875637;29;20053;-90
2023/10/02 00:18:20;;;;;;;10.40;4.28;;;13.50;77.70;;;;;;4871565;29;20135;-91
2023/10/02 00:21:17;;;;;;;10.55;4.25;;;13.50;77.50;;;;;;4874924;29;20101;-92
2023/10/02 00:23:34;;;;;;;10.65;4.53;;;13.50;77.80;;;;;;4888557;29;20057;-90
2023/10/02 00:26:03;;;;;;;10.30;4.05;;;13.50;78.00;;;;;;4880781;29;20487;-91
2023/10/02 00:28:33;;;;;;;11.67;4.27;;;13.50;77.90;;;;;;4891476;29;20116;-91
2023/10/02 00:31:00;;;;;;;11.05;4.45;;;13.50;77.60;;;;;;4885066;29;20076;-91
2023/10/02 00:33:29;;;;;;;12.65;4.57;;;13.60;77.70;;;;;;4881977;29;20500;-90
2023/10/02 00:35:58;;;;;;;12.85;4.30;;;13.50;77.70;;;;;;4883383;29;20105;-90
2023/10/02 00:38:25;;;;;;;11.35;4.30;;;13.50;78.00;;;;;;4886395;29;20057;-90
2023/10/02 00:40:52;;;;;;;11.40;4.47;;;13.50;77.90;;;;;;4873150;29;20052;-90
2023/10/02 00:43:35;;;;;;;10.80;3.55;;;13.50;78.10;;;;;;4888727;29;20103;-91
2023/10/02 00:46:03;;;;;;;8.60;3.80;;;13.50;78.10;;;;;;4882897;29;20044;-91
2023/10/02 00:48:33;;;;;;;11.32;3.88;;;13.50;78.00;;;;;;4885118;29;20105;-91
2023/10/02 00:51:11;;;;;;;10.60;3.90;;;13.50;78.00;;;;;;4887321;29;20120;-92
2023/10/02 00:53:46;;;;;;;13.13;4.40;;;13.50;78.20;;;;;;4891341;29;20464;-91
2023/10/02 00:56:22;;;;;;;10.57;4.00;;;13.50;78.10;;;;;;4887523;29;20045;-91
2023/10/02 00:58:55;;;;;;;11.48;4.22;;;13.50;78.10;;;;;;4879465;29;20068;-91
2023/10/02 01:01:24;;;;;;;11.32;3.83;;;13.50;77.90;;;;;;4875242;29;20048;-92
2023/10/02 01:04:23;;;;;;;9.25;4.10;;;13.50;77.80;;;;;;4869628;29;20522;-91
2023/10/02 01:06:54;;;;;;;11.63;4.63;;;13.50;78.00;;;;;;4883659;29;20104;-91
2023/10/02 01:09:26;;;;;;;9.00;3.67;;;13.50;78.40;;;;;;4893444;29;20077;-91
2023/10/02 01:11:57;;;;;;;10.70;4.57;;;13.50;78.40;;;;;;4891977;29;20159;-92
2023/10/02 01:14:50;;;;;;;12.43;4.35;;;13.50;78.30;;;;;;4892247;29;20137;-91
2023/10/02 01:17:21;;;;;;;13.45;4.25;;;13.50;78.10;;;;;;4892347;29;20468;-91
2023/10/02 01:19:53;;;;;;;9.67;3.87;;;13.50;78.20;;;;;;4892425;29;20059;-91
2023/10/02 01:22:28;;;;;;;11.85;3.75;;;13.60;78.10;;;;;;4877683;29;20103;-91
2023/10/02 01:25:12;;;;;;;10.00;4.00;;;13.60;78.20;;;;;;4891383;29;20083;-91
2023/10/02 01:27:46;;;;;;;10.18;4.07;;;13.60;78.00;;;;;;4871189;29;20143;-91
2023/10/02 01:30:21;;;;;;;9.32;3.67;;;13.70;77.70;;;;;;4877324;29;20052;-90
2023/10/02 01:33:06;;;;;;;13.37;4.57;;;13.70;77.80;;;;;;4891973;29;20061;-90
2023/10/02 01:35:48;;;;;;;13.50;4.25;;;13.70;77.50;;;;;;4873718;29;20135;-90
2023/10/02 01:38:18;;;;;;;11.23;4.05;;;13.60;77.40;;;;;;4891803;29;20119;-90
2023/10/02 01:41:10;;;;;;;10.65;3.80;;;13.60;77.70;;;;;;4889550;29;20144;-90
2023/10/02 01:43:44;;;;;;;15.75;4.22;;;13.70;77.80;;;;;;4887045;29;20044;-92
2023/10/02 01:46:17;;;;;;;10.63;4.17;;;13.60;77.80;;;;;;4892670;29;20109;-91
2023/10/02 01:48:48;;;;;;;8.95;3.90;;;13.60;78.10;;;;;;4889510;29;20053;-91
2023/10/02 01:51:21;;;;;;;10.40;4.00;;;13.60;78.10;;;;;;4888846;29;20078;-90
2023/10/02 01:53:54;;;;;;;9.63;3.40;;;13.50;78.00;;;;;;4892358;29;20059;-90
2023/10/02 01:56:27;;;;;;;8.63;3.95;;;13.60;78.10;;;;;;4874116;29;20606;-90
2023/10/02 01:59:08;;;;;;;9.23;3.60;;;13.60;78.00;;;;;;4888913;29;20053;-90
2023/10/02 02:04:46;;;;;;;12.32;4.18;;;13.50;78.20;;;;;;4821407;29;20124;-87
2023/10/02 02:07:15;;;;;;;13.68;4.40;;;13.60;78.10;;;;;;4879668;29;20467;-86
2023/10/02 02:09:43;;;;;;;14.05;4.07;;;13.60;78.20;;;;;;4862743;29;20455;-86
2023/10/02 02:12:10;;;;;;;11.83;3.67;;;13.70;78.00;;;;;;4879949;29;20141;-87
2023/10/02 02:14:52;;;;;;;11.65;4.03;;;13.60;78.10;;;;;;4863035;29;20407;-86
2023/10/02 02:17:26;;;;;;;14.82;4.35;;;13.70;78.30;;;;;;4861973;29;20057;-87
2023/10/02 02:20:11;;;;;;;12.80;4.40;;;13.70;78.30;;;;;;4886860;29;20053;-87
2023/10/02 02:22:38;;;;;;;13.07;4.28;;;13.80;78.40;;;;;;4864609;29;20084;-86
2023/10/02 02:25:06;;;;;;;13.97;4.00;;;13.80;78.10;;;;;;4848584;29;20045;-87
2023/10/02 02:27:33;;;;;;;9.50;3.97;;;13.80;78.40;;;;;;4860873;29;20049;-87
2023/10/02 02:30:00;;;;;;;9.35;3.72;;;13.80;78.20;;;;;;4866150;29;20113;-86
2023/10/02 02:32:36;;;;;;;13.20;3.50;;;13.80;77.90;;;;;;4879396;29;20083;-87
2023/10/02 02:35:08;;;;;;;10.50;3.70;;;14.00;77.30;;;;;;4878809;29;20646;-86
2023/10/02 02:37:35;;;;;;;8.97;3.70;;;14.00;77.20;;;;;;4879632;29;20140;-88
2023/10/02 02:42:50;;;;;;;11.07;3.90;;;14.00;77.50;;;;;;4879703;29;20145;-86
2023/10/02 02:45:31;;;;;;;9.80;4.00;;;13.90;78.10;;;;;;4878598;29;20065;-86
2023/10/02 02:48:04;;;;;;;10.75;3.80;;;13.80;78.20;;;;;;4873439;29;20053;-86
2023/10/02 02:50:37;;;;;;;9.50;3.63;;;13.80;78.20;;;;;;4860317;29;20052;-87
2023/10/02 02:53:21;;;;;;;11.68;4.20;;;13.80;78.30;;;;;;4859201;29;20133;-87
2023/10/02 02:56:15;;;;;;;12.48;3.67;;;13.90;78.10;;;;;;4846425;29;20048;-86
2023/10/02 02:58:48;;;;;;;11.85;3.95;;;13.90;77.70;;;;;;4863422;29;20063;-90
2023/10/02 03:01:29;;;;;;;11.18;4.18;;;14.00;77.40;;;;;;4862040;29;20056;-86
2023/10/02 03:04:10;;;;;;;11.37;4.00;;;13.90;77.50;;;;;;4878561;29;20452;-86
2023/10/02 03:06:38;;;;;;;13.98;3.90;;;14.00;77.60;;;;;;4879089;29;20061;-87
2023/10/02 03:09:08;;;;;;;10.48;4.10;;;14.00;77.70;;;;;;4868313;29;20049;-87
2023/10/02 03:11:35;;;;;;;11.32;3.88;;;14.00;77.80;;;;;;4854581;29;20086;-87
2023/10/02 03:14:14;;;;;;;10.55;4.07;;;13.90;77.80;;;;;;4876174;29;20495;-88
2023/10/02 03:16:45;;;;;;;11.30;3.80;;;14.00;77.90;;;;;;4877770;29;20571;-87
2023/10/02 03:19:13;;;;;;;10.50;3.65;;;13.90;77.60;;;;;;4863996;29;20061;-88
2023/10/02 03:21:42;;;;;;;8.57;3.45;;;13.90;77.90;;;;;;4854435;29;20128;-87
2023/10/02 03:24:12;;;;;;;10.05;3.70;;;13.90;77.90;;;;;;4863351;29;20074;-87
2023/10/02 03:26:43;;;;;;;10.02;3.83;;;13.90;77.90;;;;;;4872077;29;20525;-87
2023/10/02 03:29:21;;;;;;;7.83;3.40;;;14.00;77.60;;;;;;4847429;29;20076;-87
2023/10/02 03:31:49;;;;;;;9.00;3.60;;;14.00;77.50;;;;;;4864891;29;20381;-87
2023/10/02 03:34:30;;;;;;;9.07;3.97;;;14.00;77.50;;;;;;4861030;29;20060;-87
2023/10/02 03:37:21;;;;;;;11.18;3.95;;;14.00;77.50;;;;;;4879698;29;20056;-87
2023/10/02 03:39:52;;;;;;;9.45;3.72;;;13.90;77.50;;;;;;4863843;29;20053;-88
2023/10/02 03:42:22;;;;;;;11.70;3.60;;;13.90;77.80;;;;;;4865103;29;20396;-87
2023/10/02 03:44:54;;;;;;;11.23;4.13;;;13.90;78.00;;;;;;4847263;29;20139;-87
2023/10/02 03:47:22;;;;;;;11.20;3.95;;;13.90;78.10;;;;;;4843736;29;20056;-87
2023/10/02 03:49:50;;;;;;;10.38;3.78;;;13.80;78.00;;;;;;4874511;29;20068;-87
2023/10/02 03:52:18;;;;;;;10.27;4.25;;;13.80;78.30;;;;;;4882172;29;20053;-87
2023/10/02 03:54:46;;;;;;;10.37;3.87;;;13.80;78.40;;;;;;4863615;29;20112;-87
2023/10/02 03:57:37;;;;;;;10.70;3.83;;;13.80;78.80;;;;;;4878456;29;20139;-87
2023/10/02 04:00:18;;;;;;;11.35;4.75;;;13.90;78.50;;;;;;4877736;29;20052;-87
2023/10/02 04:02:47;;;;;;;10.98;3.78;;;13.80;78.30;;;;;;4861541;29;20063;-87
2023/10/02 04:06:05;;;;;;;10.75;4.45;;;13.80;78.30;;;;;;4858016;29;20050;-88
2023/10/02 04:08:31;;;;;;;9.70;3.67;;;13.80;78.20;;;;;;4858084;29;20589;-88
2023/10/02 04:11:03;;;;;;;8.98;3.60;;;13.80;78.30;;;;;;4876758;29;20053;-88
2023/10/02 04:13:38;;;;;;;8.45;3.80;;;13.80;78.50;;;;;;4846465;29;20065;-87
2023/10/02 04:19:00;;;;;;;9.48;3.58;;;13.80;79.00;;;;;;4859583;29;20060;-87
2023/10/02 04:21:29;;;;;;;10.17;3.23;;;13.80;78.60;;;;;;4862697;29;20415;-87
2023/10/02 04:23:57;;;;;;;9.60;3.65;;;13.90;78.20;;;;;;4859976;29;20049;-87
2023/10/02 04:26:28;;;;;;;10.23;3.63;;;13.90;78.10;;;;;;4861319;29;20060;-87
2023/10/02 04:31:44;;;;;;;9.90;3.00;;;14.00;77.90;;;;;;4877034;29;20059;-87
2023/10/02 04:34:29;;;;;;;9.20;3.60;;;14.00;77.90;;;;;;4862467;29;20381;-87
2023/10/02 04:36:56;;;;;;;9.27;3.55;;;14.00;77.90;;;;;;4879341;29;20105;-87
2023/10/02 04:42:15;;;;;;;10.73;3.47;;;14.00;77.50;;;;;;4870569;29;20121;-87
2023/10/02 04:44:44;;;;;;;8.18;3.47;;;14.10;77.10;;;;;;4859816;29;20057;-87
2023/10/02 04:47:19;;;;;;;11.57;2.97;;;14.10;77.20;;;;;;4873830;29;20075;-87
2023/10/02 04:52:55;;;;;;;10.55;3.75;;;14.10;77.30;;;;;;4864264;29;20092;-87
2023/10/02 04:55:25;;;;;;;11.00;4.10;;;14.10;77.30;;;;;;4876056;29;20061;-90
2023/10/02 04:58:03;;;;;;;10.30;3.50;;;14.20;77.20;;;;;;4850661;29;20555;-89
2023/10/02 05:00:33;;;;;;;9.23;3.50;;;14.20;76.90;;;;;;4880563;29;20400;-90
2023/10/02 05:03:49;;;;;;;9.48;3.60;;;14.20;76.70;;;;;;4874944;29;20045;-90
2023/10/02 05:05:59;;;;;;;8.02;3.42;;;14.20;76.90;;;;;;4864715;29;20045;-90
2023/10/02 05:08:37;;;;;;;10.70;3.78;;;14.20;76.80;;;;;;4846198;29;20045;-89
2023/10/02 05:11:08;;;;;;;11.07;3.20;;;14.20;77.10;;;;;;4865299;29;20041;-88
2023/10/02 05:16:27;;;;;;;9.10;3.13;;;14.10;77.30;;;;;;4880784;29;20095;-88
2023/10/02 05:18:54;;;;;;;12.15;3.70;;;14.20;77.00;;;;;;4883115;29;20105;-88
2023/10/02 05:21:35;;;;;;;8.50;2.47;;;14.20;77.40;;;;;;4864648;29;20147;-89
2023/10/02 05:24:12;;;;;;;7.95;2.67;;;14.20;77.20;;;;;;4849887;29;20045;-89
2023/10/02 05:26:41;;;;;;;13.00;3.33;;;14.20;77.30;;;;;;4883395;29;20392;-90
2023/10/02 05:29:17;;;;;;;10.05;2.90;;;14.10;77.10;;;;;;4851272;29;20478;-87
2023/10/02 05:31:45;;;;;;;11.23;3.28;;;14.20;77.10;;;;;;4880617;29;20518;-86
2023/10/02 05:34:14;;;;;;;8.68;2.70;;;14.10;77.10;;;;;;4865409;29;20064;-86
2023/10/02 05:36:55;;;;;;;9.32;3.20;;;14.20;77.30;;;;;;4880717;29;20053;-87
2023/10/02 05:39:29;;;;;;;8.80;2.70;;;14.20;77.30;;;;;;4849480;29;20515;-91
2023/10/02 05:42:05;;;;;;;8.45;2.63;;;14.20;77.80;;;;;;4867534;29;20492;-89
2023/10/02 05:44:34;;;;;;;10.40;3.13;;;14.20;77.70;;;;;;4865463;29;20135;-87
2023/10/02 05:47:05;;;;;;;7.85;2.53;;;14.40;77.30;;;;;;4869055;29;20068;-87
2023/10/02 05:49:48;;;;;;;10.68;2.97;;;14.40;77.20;;;;;;4864684;29;20056;-87
2023/10/02 05:52:23;;;;;;;13.20;3.50;;;14.40;77.10;;;;;;4862770;29;20056;-87
2023/10/02 05:54:54;;;;;;;8.23;3.10;;;14.50;76.80;;;;;;4879367;29;20240;-87
2023/10/02 05:57:31;;;;;;;9.48;2.70;;;14.50;77.00;;;;;;4883058;29;20053;-87
2023/10/02 06:00:00;;;;;;;8.23;3.22;;;14.50;76.30;;;;;;4850750;29;20049;-87
2023/10/02 06:02:31;;;;;;;9.15;2.95;;;14.60;76.20;;;;;;4862966;29;20144;-87
2023/10/02 06:05:07;;;;;;;8.23;2.80;;;14.50;76.60;;;;;;4878378;29;20139;-87
2023/10/02 06:07:43;;;;;;;10.95;3.38;;;14.50;76.70;;;;;;4862781;29;20057;-87
2023/10/02 06:10:25;;;;;;;10.07;2.97;;;14.50;76.80;;;;;;4865084;29;20064;-87
2023/10/02 06:13:03;;;;;;;9.35;3.10;;;14.60;76.80;;;;;;4858972;29;20411;-87
2023/10/02 06:15:43;;;;;;;7.97;2.63;;;14.60;76.90;;;;;;4879781;29;20415;-87
2023/10/02 06:18:10;;;;;;;8.33;2.80;;;14.70;76.40;;;;;;4864026;29;20570;-87
2023/10/02 06:20:57;;;;;;;9.77;2.63;;;14.70;76.10;;;;;;4864425;29;20084;-87
2023/10/02 06:23:25;;;;;;;10.68;3.13;;;14.70;76.30;;;;;;4864631;29;20064;-87
2023/10/02 06:25:52;;;;;;;11.02;2.97;;;14.70;76.00;;;;;;4848845;29;20057;-87
2023/10/02 06:28:23;;;;;;;10.38;2.83;;;14.80;76.30;;;;;;4864978;29;20470;-87
2023/10/02 06:30:51;;;;;;;7.97;2.80;;;14.80;76.00;;;;;;4864662;29;20049;-87
2023/10/02 06:33:21;;;;;;;9.73;3.08;;;14.80;76.40;;;;;;4863433;29;20514;-86
2023/10/02 06:35:57;;;;;;;12.98;3.60;;;14.80;76.00;;;;;;4879771;29;20059;-86
2023/10/02 06:38:25;;;;;;;9.13;2.80;;;14.90;76.00;;;;;;4856648;29;20056;-86
2023/10/02 06:40:56;;;;;;;10.55;2.60;;;14.90;75.90;;;;;;4879434;29;20507;-86
2023/10/02 06:43:31;;;;;;;8.63;3.10;;;14.90;75.90;;;;;;4879534;29;20063;-86
2023/10/02 06:46:13;;;;;;;9.52;3.15;;;14.90;75.80;;;;;;4879691;29;20053;-85
2023/10/02 06:48:45;;;;;;;8.38;2.80;;;15.00;76.00;;;;;;4849190;29;20144;-86
2023/10/02 06:51:13;;;;;;;10.88;3.25;;;15.00;75.90;;;;;;4879676;29;20056;-86
2023/10/02 06:53:42;;;;;;;10.55;3.00;;;15.00;75.80;;;;;;4872698;29;20063;-86
2023/10/02 06:56:11;;;;;;;10.63;2.70;;;15.00;75.70;;;;;;4869348;29;20049;-86
2023/10/02 06:58:49;;;;;;;9.05;2.67;;;15.10;75.70;;;;;;4874611;29;20056;-87
2023/10/02 07:01:19;;;;;;;9.10;2.60;;;15.20;75.40;;;;;;4878961;29;20140;-87
2023/10/02 07:03:56;;;;;;;10.10;2.67;;;15.20;75.30;;;;;;4858549;29;20114;-87
2023/10/02 07:06:24;;;;;;;8.30;2.90;;;15.20;75.40;;;;;;4848669;29;20078;-88
2023/10/02 07:09:11;;;;;;;9.67;2.53;;;15.20;75.50;;;;;;4868019;29;20078;-87
2023/10/02 07:11:42;;;;;;;9.82;2.97;;;15.20;75.40;;;;;;4842181;29;20132;-87
2023/10/02 07:14:10;;;;;;;10.07;2.92;;;15.30;75.20;;;;;;4861119;29;20053;-87
2023/10/02 07:16:38;;;;;;;11.23;2.60;;;15.40;75.00;;;;;;4847861;29;20125;-87
2023/10/02 07:19:05;;;;;;;11.95;2.65;;;15.50;74.50;;;;;;4879402;29;20052;-86
2023/10/02 07:21:35;;;;;;;10.40;3.00;;;15.50;74.40;;;;;;4848136;29;20141;-86
2023/10/02 07:24:03;;;;;;;10.93;2.85;;;15.50;74.50;;;;;;4878959;29;20053;-86
2023/10/02 07:26:51;;;;;;;9.93;3.00;;;15.60;74.70;;;;;;4879342;29;20111;-90
2023/10/02 07:29:19;;;;;;;10.52;3.45;;;15.60;74.70;;;;;;4864399;29;20049;-89
2023/10/02 07:31:47;;;;;;;10.40;3.22;;;15.70;74.30;;;;;;4878918;29;20477;-89
2023/10/02 07:34:15;;;;;;;9.30;3.20;;;15.80;74.50;;;;;;4885035;29;20057;-91
2023/10/02 07:36:46;;;;;;;13.20;3.70;;;15.80;74.20;;;;;;4862251;29;20085;-90
2023/10/02 07:42:04;;;;;;;13.32;4.20;;;16.00;74.50;;;;;;4876772;29;20057;-91
2023/10/02 07:44:37;;;;;;;11.85;3.70;;;16.00;73.70;;;;;;4859701;29;20077;-91
2023/10/02 07:47:21;;;;;;;11.43;4.10;;;16.10;73.80;;;;;;4852321;29;20085;-91
2023/10/02 07:49:54;;;;;;;13.52;3.97;;;16.10;73.90;;;;;;4859939;29;20045;-90
2023/10/02 07:55:23;;;;;;;11.73;3.33;;;16.40;73.60;;;;;;4856184;29;20063;-92
2023/10/02 07:57:58;;;;;;;8.52;3.15;;;16.50;73.30;;;;;;4863902;29;20052;-90
2023/10/02 08:00:37;;;;;;;9.73;3.57;;;16.50;72.90;;;;;;4863406;29;20060;-91
2023/10/02 08:06:00;;;;;;;11.90;3.92;;;16.60;72.70;;;;;;4871448;29;20049;-92
2023/10/02 08:08:34;;;;;;;11.48;3.55;;;16.60;72.60;;;;;;4878903;29;20057;-92
2023/10/02 08:11:06;;;;;;;10.02;3.28;;;16.80;72.70;;;;;;4879197;29;20040;-91
2023/10/02 08:13:33;;;;;;;9.93;3.00;;;16.80;73.00;;;;;;4884206;29;20057;-91
2023/10/02 08:16:08;;;;;;;8.95;3.28;;;16.90;72.70;;;;;;4867393;29;20052;-91
2023/10/02 08:18:55;;;;;;;8.30;2.70;;;17.00;72.10;;;;;;4867461;29;20053;-91
2023/10/02 08:21:33;;;;;;;8.52;2.80;;;17.10;72.10;;;;;;4896478;29;20139;-92
2023/10/02 08:24:11;;;;;;;8.88;2.75;;;17.10;72.20;;;;;;4849147;29;20060;-91
2023/10/02 08:26:40;;;;;;;9.30;2.80;;;17.10;71.80;;;;;;4867009;29;20055;-90
2023/10/02 08:29:08;;;;;;;11.63;2.88;;;17.20;72.20;;;;;;4873141;29;20135;-91
2023/10/02 08:31:42;;;;;;;10.25;2.80;;;17.30;72.50;;;;;;4882672;29;20057;-91
2023/10/02 08:34:12;;;;;;;8.23;2.72;;;17.40;71.60;;;;;;4884168;29;20056;-91
2023/10/02 08:36:42;;;;;;;8.85;3.00;;;17.40;71.90;;;;;;4880824;29;20499;-92
2023/10/02 08:39:09;;;;;;;10.30;2.70;;;17.50;72.10;;;;;;4866835;29;20072;-92
2023/10/02 08:41:50;;;;;;;8.52;2.55;;;17.50;70.80;;;;;;4866472;29;20151;-91
2023/10/02 08:44:22;;;;;;;8.18;2.85;;;17.50;71.00;;;;;;4859197;29;20086;-92
2023/10/02 08:46:49;;;;;;;14.65;3.63;;;17.60;70.80;;;;;;4870328;29;20049;-91
2023/10/02 08:49:18;;;;;;;11.57;3.05;;;17.60;70.50;;;;;;4849841;29;20105;-92
2023/10/02 08:51:51;;;;;;;11.40;2.80;;;17.80;71.70;;;;;;4863516;29;20517;-92
2023/10/02 08:54:27;;;;;;;9.32;2.90;;;17.80;70.40;;;;;;4868085;29;20124;-94
2023/10/02 08:57:18;;;;;;;9.75;2.85;;;17.90;69.30;;;;;;4867797;29;20080;-92
2023/10/02 09:00:00;;;;;;;8.02;2.50;;;17.90;69.00;;;;;;4866808;29;20053;-93
2023/10/02 09:02:30;;;;;;;9.23;2.67;;;18.00;69.90;;;;;;4852079;29;20503;-93
2023/10/02 09:04:57;;;;;;;9.40;2.83;;;18.00;70.10;;;;;;4882320;29;20061;-89
2023/10/02 09:07:44;;;;;;;9.32;2.85;;;18.10;69.60;;;;;;4847944;29;20087;-89
2023/10/02 09:10:28;;;;;;;12.52;2.80;;;18.20;69.80;;;;;;4847761;29;20568;-89
2023/10/02 09:13:14;;;;;;;10.05;2.90;;;18.30;69.60;;;;;;4879545;29;20041;-89
2023/10/02 09:15:45;;;;;;;8.82;2.67;;;18.40;69.30;;;;;;4879722;29;20109;-89
2023/10/02 09:18:58;;;;;;;11.37;3.17;;;18.50;69.20;;;;;;4880623;29;20381;-88
2023/10/02 09:21:23;;;;;;;8.30;2.92;;;18.60;68.70;;;;;;4879815;29;20053;-89
2023/10/02 09:23:51;;;;;;;9.02;2.92;;;18.50;69.30;;;;;;4880148;29;20542;-89
2023/10/02 09:26:27;;;;;;;11.70;3.42;;;18.60;69.20;;;;;;4880462;29;20041;-89
2023/10/02 09:29:04;;;;;;;11.48;3.33;;;18.60;69.30;;;;;;4881087;29;20060;-90
2023/10/02 09:31:34;;;;;;;9.40;3.03;;;18.80;69.20;;;;;;4880687;29;20084;-89
2023/10/02 09:34:16;;;;;;;10.93;3.15;;;18.90;68.30;;;;;;4862243;29;20057;-89
2023/10/02 09:37:11;;;;;;;10.05;3.55;;;19.00;69.20;;;;;;4867405;29;20072;-89
2023/10/02 09:40:00;;;;;;;10.88;3.97;;;19.30;68.50;;;;;;4879510;29;20045;-88
2023/10/02 09:42:33;;;;;;;9.32;3.35;;;19.50;69.30;;;;;;4873175;29;20564;-89
2023/10/02 09:45:08;;;;;;;11.00;3.87;;;19.60;68.00;;;;;;4879872;29;20056;-89
2023/10/02 09:47:37;;;;;;;9.80;2.90;;;19.70;67.90;;;;;;4864888;29;20231;-90
2023/10/02 09:50:25;;;;;;;9.15;3.45;;;19.70;66.40;;;;;;4865249;29;20045;-89
2023/10/02 09:53:08;;;;;;;10.48;3.72;;;19.80;67.40;;;;;;4880786;29;20460;-89
2023/10/02 09:56:08;;;;;;;8.98;3.20;;;19.80;66.20;;;;;;4849055;29;20053;-89
2023/10/02 09:59:12;;;;;;;15.80;3.97;;;19.80;66.10;;;;;;4880434;29;20051;-89
2023/10/02 10:01:40;;;;;;;11.60;3.88;;;19.90;66.30;;;;;;4879561;29;20192;-89
2023/10/02 10:07:35;;;;;;;8.90;3.45;;;20.00;65.80;;;;;;4881590;29;20061;-89
2023/10/02 10:11:10;;;;;;;10.55;3.72;;;20.00;66.00;;;;;;4863009;29;20137;-89
2023/10/02 10:13:27;;;;;;;11.20;3.60;;;20.10;66.10;;;;;;4863767;29;20053;-90
2023/10/02 10:16:23;;;;;;;8.55;3.22;;;20.20;67.40;;;;;;4864039;29;20104;-89
2023/10/02 10:19:26;;;;;;;11.57;3.47;;;20.30;66.00;;;;;;4862748;29;20053;-89
2023/10/02 10:22:01;;;;;;;10.25;3.17;;;20.30;66.00;;;;;;4879467;29;20503;-89
2023/10/02 10:24:31;;;;;;;10.25;3.10;;;20.40;65.50;;;;;;4872189;29;20151;-89
2023/10/02 10:26:58;;;;;;;8.67;2.93;;;20.40;66.00;;;;;;4862589;29;20048;-89
2023/10/02 10:29:41;;;;;;;8.73;2.30;;;20.50;64.70;;;;;;4846471;29;20057;-89
2023/10/02 10:32:17;;;;;;;8.07;2.70;;;20.60;66.40;;;;;;4878248;29;20435;-89
2023/10/02 10:35:14;;;;;;;8.57;2.78;;;20.60;65.30;;;;;;4863940;29;20049;-89
2023/10/02 10:37:46;;;;;;;10.85;2.88;;;20.80;64.70;;;;;;4862731;29;20053;-89
2023/10/02 10:40:50;;;;;;;7.60;2.10;;;20.90;65.00;;;;;;4852879;29;20056;-90
2023/10/02 10:43:18;;;;;;;7.55;2.03;;;21.00;63.70;;;;;;4879465;29;20053;-90
2023/10/02 10:45:48;;;;;;;7.45;2.33;;;21.10;62.70;;;;;;4871935;29;20055;-90
2023/10/02 10:48:21;;;;;;;7.68;1.98;;;21.10;63.70;;;;;;4847688;29;20106;-89
2023/10/02 10:51:20;;;;;;;9.23;2.67;;;21.20;63.70;;;;;;4859325;29;20117;-89
2023/10/02 10:53:54;;;;;;;6.77;1.77;;;21.30;63.50;;;;;;4880622;29;20063;-89
2023/10/02 10:56:22;;;;;;;6.75;1.92;;;21.50;63.40;;;;;;4878197;29;20064;-89
2023/10/02 10:59:13;;;;;;;8.23;1.73;;;21.50;63.20;;;;;;4868662;29;20077;-89
2023/10/02 11:02:09;;;;;;;17.15;2.80;;;21.50;61.50;;;;;;4879415;29;20053;-89
2023/10/02 11:04:40;;;;;;;5.70;1.20;;;21.50;62.20;;;;;;4863454;29;20140;-89
2023/10/02 11:07:19;;;;;;;4.63;1.00;;;21.50;59.70;;;;;;4862229;29;20108;-89
2023/10/02 11:10:14;;;;;;;4.63;1.05;;;21.50;60.00;;;;;;4863934;29;20045;-89
2023/10/02 11:13:08;;;;;;;6.43;1.52;;;21.50;61.00;;;;;;4872102;29;20084;-90
2023/10/02 11:15:50;;;;;;;6.40;1.40;;;21.50;60.40;;;;;;4871612;29;20086;-89
2023/10/02 11:18:18;;;;;;;5.68;1.20;;;21.60;60.10;;;;;;4879106;29;20144;-89
2023/10/02 11:20:51;;;;;;;4.60;0.90;;;21.60;60.00;;;;;;4868098;29;20460;-89
2023/10/02 11:23:43;;;;;;;3.70;0.70;;;21.60;58.80;;;;;;4863688;29;20069;-90
2023/10/02 11:26:13;;;;;;;3.33;0.85;;;21.60;58.10;;;;;;4892182;29;20511;-90
2023/10/02 11:28:44;;;;;;;5.68;1.00;;;21.60;58.80;;;;;;4869364;29;20049;-90
2023/10/02 11:31:45;;;;;;;4.43;0.95;;;21.60;59.60;;;;;;4879137;29;20049;-89
2023/10/02 11:34:12;;;;;;;3.80;1.00;;;21.80;59.50;;;;;;4863785;29;20048;-90
2023/10/02 11:36:55;;;;;;;7.88;1.00;;;21.90;58.60;;;;;;4865351;29;20056;-89
2023/10/02 11:39:33;;;;;;;5.30;0.80;;;21.90;57.70;;;;;;4870308;29;20057;-90
2023/10/02 11:42:00;;;;;;;4.43;1.00;;;22.00;57.10;;;;;;4862385;29;20126;-90
2023/10/02 11:44:27;;;;;;;4.60;0.80;;;22.00;56.90;;;;;;4853855;29;20061;-89
2023/10/02 11:46:55;;;;;;;3.97;0.83;;;22.10;57.90;;;;;;4871120;29;20495;-90
2023/10/02 11:49:22;;;;;;;5.57;1.30;;;22.10;57.40;;;;;;4862290;29;20057;-89
2023/10/02 11:51:49;;;;;;;4.90;1.08;;;22.20;58.80;;;;;;4847596;29;20139;-90
2023/10/02 11:54:17;;;;;;;4.75;1.10;;;22.30;56.60;;;;;;4853102;29;20057;-89
2023/10/02 11:56:46;;;;;;;4.55;0.80;;;22.30;57.00;;;;;;4877767;29;20053;-90
2023/10/02 11:59:14;;;;;;;3.83;0.97;;;22.50;58.50;;;;;;4862459;29;20064;-89
2023/10/02 12:01:47;;;;;;;4.47;1.70;;;22.60;56.80;;;;;;4879179;29;20141;-90
2023/10/02 12:04:15;;;;;;;4.18;2.08;;;22.60;57.80;;;;;;4867897;29;20155;-89
2023/10/02 12:06:42;;;;;;;5.50;2.10;;;22.60;57.00;;;;;;4844907;29;20052;-90
2023/10/02 12:09:17;;;;;;;5.43;2.10;;;22.60;57.10;;;;;;4877891;29;20136;-89
2023/10/02 12:11:45;;;;;;;6.10;1.97;;;22.70;57.50;;;;;;4867810;29;20106;-89
2023/10/02 12:14:12;;;;;;;5.75;2.08;;;22.80;59.20;;;;;;4878522;29;20057;-90
2023/10/02 12:16:39;;;;;;;5.63;2.55;;;22.80;57.10;;;;;;4848627;29;20057;-90
2023/10/02 12:19:10;;;;;;;4.93;2.05;;;22.80;57.50;;;;;;4861232;29;20053;-90
2023/10/02 12:21:37;;;;;;;4.80;1.73;;;22.70;57.80;;;;;;4877810;29;20053;-89
2023/10/02 12:24:07;;;;;;;6.20;2.37;;;22.70;58.50;;;;;;4862495;29;20060;-89
2023/10/02 12:26:34;;;;;;;5.55;2.25;;;22.60;59.00;;;;;;4876975;29;20049;-89
2023/10/02 12:29:04;;;;;;;4.82;2.05;;;22.60;58.10;;;;;;4846737;29;20052;-90
2023/10/02 12:31:36;;;;;;;5.85;2.20;;;22.70;59.10;;;;;;4877502;29;20053;-90
2023/10/02 12:34:05;;;;;;;5.68;2.38;;;22.80;59.10;;;;;;4878662;29;20130;-90
2023/10/02 12:36:33;;;;;;;5.47;2.10;;;22.80;60.00;;;;;;4853692;29;20049;-89
2023/10/02 12:39:02;;;;;;;6.10;2.40;;;22.90;59.20;;;;;;4877317;29;20045;-90
2023/10/02 12:41:30;;;;;;;5.60;2.33;;;23.00;58.70;;;;;;4877425;29;20049;-90
2023/10/02 12:43:58;;;;;;;4.38;2.00;;;23.10;57.80;;;;;;4877630;29;20127;-90
2023/10/02 12:46:29;;;;;;;5.38;2.05;;;23.10;59.00;;;;;;4878929;29;20393;-90
2023/10/02 12:48:58;;;;;;;4.63;1.90;;;23.10;57.70;;;;;;4878085;29;20057;-90
2023/10/02 12:51:27;;;;;;;8.43;2.33;;;23.00;57.70;;;;;;4855534;29;20603;-90
2023/10/02 12:53:54;;;;;;;5.75;2.17;;;23.00;58.60;;;;;;4877854;29;20053;-90
2023/10/02 12:56:22;;;;;;;5.15;2.20;;;23.00;59.50;;;;;;4878305;29;20109;-90
2023/10/02 12:58:54;;;;;;;5.88;2.00;;;23.10;57.80;;;;;;4878413;29;20072;-90
2023/10/02 13:01:27;;;;;;;4.57;1.70;;;23.10;57.20;;;;;;4881034;29;20059;-89
2023/10/02 13:03:55;;;;;;;4.78;1.85;;;23.20;57.80;;;;;;4848793;29;20053;-90
2023/10/02 13:06:26;;;;;;;5.05;1.90;;;23.30;56.50;;;;;;4881216;29;20109;-91
2023/10/02 13:08:59;;;;;;;7.55;2.15;;;23.30;57.30;;;;;;4854859;29;20045;-90
2023/10/02 13:11:27;;;;;;;7.55;2.63;;;23.40;58.00;;;;;;4881709;29;20064;-90
2023/10/02 13:13:55;;;;;;;5.90;2.27;;;23.30;58.00;;;;;;4848996;29;20188;-90
2023/10/02 13:16:24;;;;;;;5.38;1.92;;;23.20;57.90;;;;;;4881061;29;20523;-91
2023/10/02 13:18:51;;;;;;;7.13;2.17;;;23.20;57.90;;;;;;4864348;29;20050;-90
2023/10/02 13:21:19;;;;;;;4.80;1.75;;;23.20;57.40;;;;;;4880996;29;20602;-90
2023/10/02 13:23:48;;;;;;;5.63;2.40;;;23.30;58.50;;;;;;4848837;29;20049;-90
2023/10/02 13:26:16;;;;;;;6.20;2.30;;;23.40;57.30;;;;;;4865524;29;20460;-91
2023/10/02 13:28:48;;;;;;;6.15;2.00;;;23.30;56.50;;;;;;4881271;29;20057;-90
2023/10/02 13:31:17;;;;;;;5.93;2.78;;;23.30;57.10;;;;;;4864844;29;20045;-90
2023/10/02 13:33:46;;;;;;;5.57;2.42;;;23.40;57.20;;;;;;4849590;29;20049;-90
2023/10/02 13:36:14;;;;;;;7.28;2.20;;;23.50;57.20;;;;;;4881341;29;20091;-89
2023/10/02 13:38:41;;;;;;;5.30;1.90;;;23.50;57.60;;;;;;4870408;29;20053;-90
2023/10/02 13:41:09;;;;;;;7.78;2.13;;;23.50;57.00;;;;;;4864760;29;20144;-90
2023/10/02 13:43:44;;;;;;;5.72;2.35;;;23.50;56.20;;;;;;4880403;29;20498;-90
2023/10/02 13:46:14;;;;;;;6.45;2.17;;;23.60;56.70;;;;;;4880155;29;20045;-90
2023/10/02 13:48:45;;;;;;;5.10;2.08;;;23.60;56.70;;;;;;4881214;29;20060;-90
2023/10/02 13:51:16;;;;;;;5.50;2.03;;;23.40;57.80;;;;;;4880376;29;20060;-90